sensor_id;sensor_type;location;lat;lon;timestamp;P1;durP1;ratioP1;P2;durP2;ratioP2
9007;SDS011;62813;51.424;6.762;2023-06-24T00:00:21;8.77;;;6.87;;
9007;SDS011;62813;51.424;6.762;2023-06-24T00:02:48;12.23;;;7.43;;
9007;SDS011;62813;51.424;6.762;2023-06-24T00:05:17;11.07;;;7.90;;
9007;SDS011;62813;51.424;6.762;2023-06-24T00:07:44;10.07;;;7.37;;
9007;SDS011;62813;51.424;6.762;2023-06-24T00:10:12;9.30;;;7.60;;
9007;SDS011;62813;51.424;6.762;2023-06-24T00:12:42;8.33;;;7.50;;
9007;SDS011;62813;51.424;6.762;2023-06-24T00:15:09;9.87;;;7.70;;
9007;SDS011;62813;51.424;6.762;2023-06-24T00:17:36;8.07;;;7.27;;
9007;SDS011;62813;51.424;6.762;2023-06-24T00:20:04;8.20;;;7.40;;
9007;SDS011;62813;51.424;6.762;2023-06-24T00:22:33;8.20;;;7.40;;
9007;SDS011;62813;51.424;6.762;2023-06-24T00:25:00;7.90;;;6.97;;
9007;SDS011;62813;51.424;6.762;2023-06-24T00:27:27;8.63;;;6.93;;
9007;SDS011;62813;51.424;6.762;2023-06-24T00:29:53;9.33;;;6.80;;
9007;SDS011;62813;51.424;6.762;2023-06-24T00:32:20;8.40;;;7.50;;
9007;SDS011;62813;51.424;6.762;2023-06-24T00:34:47;7.70;;;6.90;;
9007;SDS011;62813;51.424;6.762;2023-06-24T00:37:14;9.10;;;7.70;;
9007;SDS011;62813;51.424;6.762;2023-06-24T00:39:40;8.17;;;6.90;;
9007;SDS011;62813;51.424;6.762;2023-06-24T00:42:10;8.13;;;6.90;;
9007;SDS011;62813;51.424;6.762;2023-06-24T00:44:37;9.50;;;7.17;;
9007;SDS011;62813;51.424;6.762;2023-06-24T00:47:04;10.07;;;6.77;;
9007;SDS011;62813;51.424;6.762;2023-06-24T00:49:31;9.37;;;6.87;;
9007;SDS011;62813;51.424;6.762;2023-06-24T00:51:57;7.80;;;7.00;;
9007;SDS011;62813;51.424;6.762;2023-06-24T00:54:27;8.10;;;6.53;;
9007;SDS011;62813;51.424;6.762;2023-06-24T00:56:58;12.67;;;7.23;;
9007;SDS011;62813;51.424;6.762;2023-06-24T00:59:28;8.30;;;7.00;;
9007;SDS011;62813;51.424;6.762;2023-06-24T01:01:56;7.83;;;7.13;;
9007;SDS011;62813;51.424;6.762;2023-06-24T01:04:23;9.63;;;7.00;;
9007;SDS011;62813;51.424;6.762;2023-06-24T01:06:51;7.30;;;6.60;;
9007;SDS011;62813;51.424;6.762;2023-06-24T01:09:19;7.50;;;6.77;;
9007;SDS011;62813;51.424;6.762;2023-06-24T01:11:46;8.03;;;7.23;;
9007;SDS011;62813;51.424;6.762;2023-06-24T01:14:14;8.73;;;6.47;;
9007;SDS011;62813;51.424;6.762;2023-06-24T01:19:51;7.73;;;6.80;;
9007;SDS011;62813;51.424;6.762;2023-06-24T01:31:51;8.30;;;7.40;;
9007;SDS011;62813;51.424;6.762;2023-06-24T01:34:29;7.93;;;7.10;;
9007;SDS011;62813;51.424;6.762;2023-06-24T01:37:11;7.60;;;6.80;;
9007;SDS011;62813;51.424;6.762;2023-06-24T01:39:46;8.03;;;6.83;;
9007;SDS011;62813;51.424;6.762;2023-06-24T01:42:19;6.43;;;5.83;;
9007;SDS011;62813;51.424;6.762;2023-06-24T01:44:48;7.50;;;6.70;;
9007;SDS011;62813;51.424;6.762;2023-06-24T01:47:17;10.23;;;7.13;;
9007;SDS011;62813;51.424;6.762;2023-06-24T01:49:46;9.57;;;6.43;;
9007;SDS011;62813;51.424;6.762;2023-06-24T01:52:15;7.87;;;7.07;;
9007;SDS011;62813;51.424;6.762;2023-06-24T01:54:44;9.20;;;6.30;;
9007;SDS011;62813;51.424;6.762;2023-06-24T01:57:16;7.80;;;6.77;;
9007;SDS011;62813;51.424;6.762;2023-06-24T01:59:45;8.37;;;6.97;;
9007;SDS011;62813;51.424;6.762;2023-06-24T02:02:12;7.50;;;6.70;;
9007;SDS011;62813;51.424;6.762;2023-06-24T02:04:40;9.30;;;6.57;;
9007;SDS011;62813;51.424;6.762;2023-06-24T02:07:08;7.33;;;6.63;;
9007;SDS011;62813;51.424;6.762;2023-06-24T02:09:37;8.27;;;7.13;;
9007;SDS011;62813;51.424;6.762;2023-06-24T02:12:05;7.33;;;6.57;;
9007;SDS011;62813;51.424;6.762;2023-06-24T02:14:34;7.40;;;6.67;;
9007;SDS011;62813;51.424;6.762;2023-06-24T02:17:03;7.40;;;6.43;;
9007;SDS011;62813;51.424;6.762;2023-06-24T02:19:32;8.17;;;6.80;;
9007;SDS011;62813;51.424;6.762;2023-06-24T02:22:02;8.07;;;6.97;;
9007;SDS011;62813;51.424;6.762;2023-06-24T02:24:30;8.23;;;6.70;;
9007;SDS011;62813;51.424;6.762;2023-06-24T02:26:58;8.90;;;6.93;;
9007;SDS011;62813;51.424;6.762;2023-06-24T02:29:25;8.20;;;6.40;;
9007;SDS011;62813;51.424;6.762;2023-06-24T02:31:54;6.77;;;6.17;;
9007;SDS011;62813;51.424;6.762;2023-06-24T02:34:22;7.30;;;6.50;;
9007;SDS011;62813;51.424;6.762;2023-06-24T02:36:50;8.00;;;6.47;;
9007;SDS011;62813;51.424;6.762;2023-06-24T02:39:17;7.60;;;6.83;;
9007;SDS011;62813;51.424;6.762;2023-06-24T02:41:46;6.80;;;6.10;;
9007;SDS011;62813;51.424;6.762;2023-06-24T02:44:16;8.60;;;6.83;;
9007;SDS011;62813;51.424;6.762;2023-06-24T02:46:43;7.43;;;6.10;;
9007;SDS011;62813;51.424;6.762;2023-06-24T02:49:13;6.93;;;6.30;;
9007;SDS011;62813;51.424;6.762;2023-06-24T02:51:42;8.47;;;6.57;;
9007;SDS011;62813;51.424;6.762;2023-06-24T02:54:09;6.90;;;6.10;;
9007;SDS011;62813;51.424;6.762;2023-06-24T02:56:37;9.17;;;6.30;;
9007;SDS011;62813;51.424;6.762;2023-06-24T02:59:08;6.97;;;5.87;;
9007;SDS011;62813;51.424;6.762;2023-06-24T03:01:36;8.77;;;7.10;;
9007;SDS011;62813;51.424;6.762;2023-06-24T03:04:05;7.77;;;6.97;;
9007;SDS011;62813;51.424;6.762;2023-06-24T03:06:34;8.50;;;7.03;;
9007;SDS011;62813;51.424;6.762;2023-06-24T03:09:03;9.47;;;6.80;;
9007;SDS011;62813;51.424;6.762;2023-06-24T03:11:30;8.17;;;7.07;;
9007;SDS011;62813;51.424;6.762;2023-06-24T03:13:57;8.73;;;6.40;;
9007;SDS011;62813;51.424;6.762;2023-06-24T03:16:24;7.70;;;6.63;;
9007;SDS011;62813;51.424;6.762;2023-06-24T03:18:51;7.07;;;6.17;;
9007;SDS011;62813;51.424;6.762;2023-06-24T03:21:17;7.87;;;7.13;;
9007;SDS011;62813;51.424;6.762;2023-06-24T03:23:44;7.80;;;6.70;;
9007;SDS011;62813;51.424;6.762;2023-06-24T03:26:11;9.87;;;7.07;;
9007;SDS011;62813;51.424;6.762;2023-06-24T03:28:38;9.13;;;6.57;;
9007;SDS011;62813;51.424;6.762;2023-06-24T03:31:05;10.67;;;7.10;;
9007;SDS011;62813;51.424;6.762;2023-06-24T03:33:31;8.87;;;7.23;;
9007;SDS011;62813;51.424;6.762;2023-06-24T03:35:58;12.30;;;6.80;;
9007;SDS011;62813;51.424;6.762;2023-06-24T03:38:25;10.67;;;7.40;;
9007;SDS011;62813;51.424;6.762;2023-06-24T03:40:52;10.23;;;7.47;;
9007;SDS011;62813;51.424;6.762;2023-06-24T03:43:18;10.23;;;7.83;;
9007;SDS011;62813;51.424;6.762;2023-06-24T03:45:45;10.67;;;8.70;;
9007;SDS011;62813;51.424;6.762;2023-06-24T03:48:12;9.53;;;8.20;;
9007;SDS011;62813;51.424;6.762;2023-06-24T03:50:39;12.27;;;7.77;;
9007;SDS011;62813;51.424;6.762;2023-06-24T03:53:06;12.83;;;11.00;;
9007;SDS011;62813;51.424;6.762;2023-06-24T03:55:32;14.23;;;9.87;;
9007;SDS011;62813;51.424;6.762;2023-06-24T03:58:02;10.83;;;9.73;;
9007;SDS011;62813;51.424;6.762;2023-06-24T04:00:29;14.30;;;10.13;;
9007;SDS011;62813;51.424;6.762;2023-06-24T04:02:55;11.50;;;9.40;;
9007;SDS011;62813;51.424;6.762;2023-06-24T04:05:22;9.37;;;8.30;;
9007;SDS011;62813;51.424;6.762;2023-06-24T04:07:50;12.10;;;9.57;;
9007;SDS011;62813;51.424;6.762;2023-06-24T04:10:18;12.77;;;10.20;;
9007;SDS011;62813;51.424;6.762;2023-06-24T04:12:45;14.03;;;11.50;;
9007;SDS011;62813;51.424;6.762;2023-06-24T04:15:12;11.07;;;8.97;;
9007;SDS011;62813;51.424;6.762;2023-06-24T04:17:41;14.60;;;10.10;;
9007;SDS011;62813;51.424;6.762;2023-06-24T04:20:08;11.93;;;8.27;;
9007;SDS011;62813;51.424;6.762;2023-06-24T04:22:36;11.27;;;9.50;;
9007;SDS011;62813;51.424;6.762;2023-06-24T04:25:06;10.97;;;8.17;;
9007;SDS011;62813;51.424;6.762;2023-06-24T04:27:34;10.53;;;7.90;;
9007;SDS011;62813;51.424;6.762;2023-06-24T04:30:01;12.07;;;8.53;;
9007;SDS011;62813;51.424;6.762;2023-06-24T04:32:32;9.43;;;8.50;;
9007;SDS011;62813;51.424;6.762;2023-06-24T04:34:58;10.20;;;8.00;;
9007;SDS011;62813;51.424;6.762;2023-06-24T04:37:27;11.53;;;8.53;;
9007;SDS011;62813;51.424;6.762;2023-06-24T04:39:54;9.30;;;8.20;;
9007;SDS011;62813;51.424;6.762;2023-06-24T04:42:21;10.37;;;8.40;;
9007;SDS011;62813;51.424;6.762;2023-06-24T04:44:49;11.40;;;8.60;;
9007;SDS011;62813;51.424;6.762;2023-06-24T04:47:18;9.17;;;8.13;;
9007;SDS011;62813;51.424;6.762;2023-06-24T04:49:46;10.23;;;8.77;;
9007;SDS011;62813;51.424;6.762;2023-06-24T04:52:13;11.13;;;8.70;;
9007;SDS011;62813;51.424;6.762;2023-06-24T04:54:40;10.43;;;8.07;;
9007;SDS011;62813;51.424;6.762;2023-06-24T04:57:08;10.03;;;8.07;;
9007;SDS011;62813;51.424;6.762;2023-06-24T04:59:36;9.60;;;8.53;;
9007;SDS011;62813;51.424;6.762;2023-06-24T05:02:04;10.57;;;8.07;;
9007;SDS011;62813;51.424;6.762;2023-06-24T05:04:31;11.67;;;8.33;;
9007;SDS011;62813;51.424;6.762;2023-06-24T05:06:58;12.80;;;9.30;;
9007;SDS011;62813;51.424;6.762;2023-06-24T05:09:25;9.77;;;8.70;;
9007;SDS011;62813;51.424;6.762;2023-06-24T05:11:51;10.17;;;9.07;;
9007;SDS011;62813;51.424;6.762;2023-06-24T05:14:18;12.33;;;9.90;;
9007;SDS011;62813;51.424;6.762;2023-06-24T05:16:45;10.27;;;9.17;;
9007;SDS011;62813;51.424;6.762;2023-06-24T05:19:12;10.10;;;8.83;;
9007;SDS011;62813;51.424;6.762;2023-06-24T05:21:38;10.77;;;9.67;;
9007;SDS011;62813;51.424;6.762;2023-06-24T05:24:05;11.03;;;9.40;;
9007;SDS011;62813;51.424;6.762;2023-06-24T05:26:32;11.27;;;10.03;;
9007;SDS011;62813;51.424;6.762;2023-06-24T05:28:59;9.93;;;8.93;;
9007;SDS011;62813;51.424;6.762;2023-06-24T05:31:25;11.73;;;9.03;;
9007;SDS011;62813;51.424;6.762;2023-06-24T05:33:53;10.87;;;8.40;;
9007;SDS011;62813;51.424;6.762;2023-06-24T05:36:19;12.20;;;8.93;;
9007;SDS011;62813;51.424;6.762;2023-06-24T05:38:47;10.50;;;8.33;;
9007;SDS011;62813;51.424;6.762;2023-06-24T05:41:15;10.13;;;9.10;;
9007;SDS011;62813;51.424;6.762;2023-06-24T05:43:42;13.30;;;9.47;;
9007;SDS011;62813;51.424;6.762;2023-06-24T05:46:10;10.83;;;9.80;;
9007;SDS011;62813;51.424;6.762;2023-06-24T05:48:37;12.80;;;10.23;;
9007;SDS011;62813;51.424;6.762;2023-06-24T05:51:03;11.83;;;9.73;;
9007;SDS011;62813;51.424;6.762;2023-06-24T05:53:30;11.40;;;9.07;;
9007;SDS011;62813;51.424;6.762;2023-06-24T05:55:57;11.87;;;10.77;;
9007;SDS011;62813;51.424;6.762;2023-06-24T05:58:23;12.90;;;10.50;;
9007;SDS011;62813;51.424;6.762;2023-06-24T06:00:50;16.03;;;10.73;;
9007;SDS011;62813;51.424;6.762;2023-06-24T06:03:17;14.73;;;11.30;;
9007;SDS011;62813;51.424;6.762;2023-06-24T06:05:43;15.57;;;12.00;;
9007;SDS011;62813;51.424;6.762;2023-06-24T06:08:10;15.40;;;12.50;;
9007;SDS011;62813;51.424;6.762;2023-06-24T06:10:37;13.60;;;11.60;;
9007;SDS011;62813;51.424;6.762;2023-06-24T06:13:04;13.07;;;10.63;;
9007;SDS011;62813;51.424;6.762;2023-06-24T06:15:31;10.57;;;9.47;;
9007;SDS011;62813;51.424;6.762;2023-06-24T06:17:58;13.63;;;11.90;;
9007;SDS011;62813;51.424;6.762;2023-06-24T06:20:24;14.57;;;11.00;;
9007;SDS011;62813;51.424;6.762;2023-06-24T06:22:51;12.00;;;10.43;;
9007;SDS011;62813;51.424;6.762;2023-06-24T06:25:18;17.07;;;13.83;;
9007;SDS011;62813;51.424;6.762;2023-06-24T06:27:45;16.37;;;14.63;;
9007;SDS011;62813;51.424;6.762;2023-06-24T06:30:12;16.13;;;12.33;;
9007;SDS011;62813;51.424;6.762;2023-06-24T06:32:39;16.93;;;14.17;;
9007;SDS011;62813;51.424;6.762;2023-06-24T06:35:06;16.70;;;11.50;;
9007;SDS011;62813;51.424;6.762;2023-06-24T06:37:34;11.70;;;10.50;;
9007;SDS011;62813;51.424;6.762;2023-06-24T06:40:01;15.43;;;11.37;;
9007;SDS011;62813;51.424;6.762;2023-06-24T06:42:29;17.23;;;12.90;;
9007;SDS011;62813;51.424;6.762;2023-06-24T06:44:56;20.17;;;13.03;;
9007;SDS011;62813;51.424;6.762;2023-06-24T06:47:23;18.07;;;14.33;;
9007;SDS011;62813;51.424;6.762;2023-06-24T06:49:49;19.13;;;14.27;;
9007;SDS011;62813;51.424;6.762;2023-06-24T06:52:19;14.23;;;12.27;;
9007;SDS011;62813;51.424;6.762;2023-06-24T06:54:45;17.27;;;12.80;;
9007;SDS011;62813;51.424;6.762;2023-06-24T06:57:12;16.70;;;12.77;;
9007;SDS011;62813;51.424;6.762;2023-06-24T06:59:39;23.47;;;16.03;;
9007;SDS011;62813;51.424;6.762;2023-06-24T07:02:06;23.23;;;16.20;;
9007;SDS011;62813;51.424;6.762;2023-06-24T07:04:33;21.63;;;15.70;;
9007;SDS011;62813;51.424;6.762;2023-06-24T07:06:59;21.33;;;12.90;;
9007;SDS011;62813;51.424;6.762;2023-06-24T07:09:26;19.90;;;16.07;;
9007;SDS011;62813;51.424;6.762;2023-06-24T07:11:53;20.07;;;14.90;;
9007;SDS011;62813;51.424;6.762;2023-06-24T07:14:20;16.63;;;12.97;;
9007;SDS011;62813;51.424;6.762;2023-06-24T07:16:47;17.47;;;15.03;;
9007;SDS011;62813;51.424;6.762;2023-06-24T07:19:13;18.53;;;14.17;;
9007;SDS011;62813;51.424;6.762;2023-06-24T07:21:40;26.47;;;17.50;;
9007;SDS011;62813;51.424;6.762;2023-06-24T07:24:07;18.67;;;14.23;;
9007;SDS011;62813;51.424;6.762;2023-06-24T07:26:33;21.40;;;16.73;;
9007;SDS011;62813;51.424;6.762;2023-06-24T07:29:00;18.43;;;14.97;;
9007;SDS011;62813;51.424;6.762;2023-06-24T07:31:35;19.67;;;16.73;;
9007;SDS011;62813;51.424;6.762;2023-06-24T07:34:03;16.93;;;14.63;;
9007;SDS011;62813;51.424;6.762;2023-06-24T07:36:30;19.53;;;14.53;;
9007;SDS011;62813;51.424;6.762;2023-06-24T07:38:57;16.30;;;13.00;;
9007;SDS011;62813;51.424;6.762;2023-06-24T07:41:24;21.67;;;14.67;;
9007;SDS011;62813;51.424;6.762;2023-06-24T07:43:51;17.37;;;12.00;;
9007;SDS011;62813;51.424;6.762;2023-06-24T07:46:18;19.37;;;13.83;;
9007;SDS011;62813;51.424;6.762;2023-06-24T07:48:44;17.67;;;13.77;;
9007;SDS011;62813;51.424;6.762;2023-06-24T07:51:11;22.87;;;12.87;;
9007;SDS011;62813;51.424;6.762;2023-06-24T07:53:38;18.73;;;14.37;;
9007;SDS011;62813;51.424;6.762;2023-06-24T07:56:04;16.20;;;13.50;;
9007;SDS011;62813;51.424;6.762;2023-06-24T07:58:31;13.77;;;12.23;;
9007;SDS011;62813;51.424;6.762;2023-06-24T08:01:00;14.50;;;11.60;;
9007;SDS011;62813;51.424;6.762;2023-06-24T08:03:27;9.90;;;8.87;;
9007;SDS011;62813;51.424;6.762;2023-06-24T08:05:54;12.83;;;10.70;;
9007;SDS011;62813;51.424;6.762;2023-06-24T08:08:21;10.40;;;9.30;;
9007;SDS011;62813;51.424;6.762;2023-06-24T08:10:47;10.70;;;7.97;;
9007;SDS011;62813;51.424;6.762;2023-06-24T08:13:14;9.80;;;8.70;;
9007;SDS011;62813;51.424;6.762;2023-06-24T08:15:41;11.03;;;9.87;;
9007;SDS011;62813;51.424;6.762;2023-06-24T08:18:08;8.17;;;7.43;;
9007;SDS011;62813;51.424;6.762;2023-06-24T08:20:34;11.10;;;8.53;;
9007;SDS011;62813;51.424;6.762;2023-06-24T08:23:01;6.83;;;6.13;;
9007;SDS011;62813;51.424;6.762;2023-06-24T08:25:28;10.13;;;8.73;;
9007;SDS011;62813;51.424;6.762;2023-06-24T08:28:14;9.93;;;8.73;;
9007;SDS011;62813;51.424;6.762;2023-06-24T08:30:59;9.90;;;7.50;;
9007;SDS011;62813;51.424;6.762;2023-06-24T08:33:26;7.40;;;6.70;;
9007;SDS011;62813;51.424;6.762;2023-06-24T08:35:52;7.67;;;6.93;;
9007;SDS011;62813;51.424;6.762;2023-06-24T08:38:19;7.27;;;6.57;;
9007;SDS011;62813;51.424;6.762;2023-06-24T08:40:46;9.80;;;6.40;;
9007;SDS011;62813;51.424;6.762;2023-06-24T08:43:13;6.90;;;6.20;;
9007;SDS011;62813;51.424;6.762;2023-06-24T08:45:40;7.07;;;6.23;;
9007;SDS011;62813;51.424;6.762;2023-06-24T08:48:06;7.60;;;6.80;;
9007;SDS011;62813;51.424;6.762;2023-06-24T08:50:39;7.30;;;6.50;;
9007;SDS011;62813;51.424;6.762;2023-06-24T08:53:10;12.83;;;8.23;;
9007;SDS011;62813;51.424;6.762;2023-06-24T08:55:41;9.83;;;7.57;;
9007;SDS011;62813;51.424;6.762;2023-06-24T08:58:10;9.63;;;6.77;;
9007;SDS011;62813;51.424;6.762;2023-06-24T09:00:37;8.70;;;7.00;;
9007;SDS011;62813;51.424;6.762;2023-06-24T09:03:03;12.63;;;9.57;;
9007;SDS011;62813;51.424;6.762;2023-06-24T09:05:30;8.03;;;6.83;;
9007;SDS011;62813;51.424;6.762;2023-06-24T09:07:57;9.13;;;6.63;;
9007;SDS011;62813;51.424;6.762;2023-06-24T09:10:30;9.50;;;7.00;;
9007;SDS011;62813;51.424;6.762;2023-06-24T09:13:01;10.37;;;5.40;;
9007;SDS011;62813;51.424;6.762;2023-06-24T09:15:29;6.27;;;5.43;;
9007;SDS011;62813;51.424;6.762;2023-06-24T09:18:03;7.27;;;5.23;;
9007;SDS011;62813;51.424;6.762;2023-06-24T09:20:31;6.83;;;4.20;;
9007;SDS011;62813;51.424;6.762;2023-06-24T09:22:59;8.07;;;4.87;;
9007;SDS011;62813;51.424;6.762;2023-06-24T09:25:27;8.93;;;4.70;;
9007;SDS011;62813;51.424;6.762;2023-06-24T09:27:54;7.90;;;4.87;;
9007;SDS011;62813;51.424;6.762;2023-06-24T09:30:23;5.43;;;4.80;;
9007;SDS011;62813;51.424;6.762;2023-06-24T09:32:50;7.50;;;5.20;;
9007;SDS011;62813;51.424;6.762;2023-06-24T09:35:18;4.97;;;4.27;;
9007;SDS011;62813;51.424;6.762;2023-06-24T09:40:18;4.97;;;4.43;;
9007;SDS011;62813;51.424;6.762;2023-06-24T09:43:03;5.17;;;4.00;;
9007;SDS011;62813;51.424;6.762;2023-06-24T09:45:30;5.90;;;4.30;;
9007;SDS011;62813;51.424;6.762;2023-06-24T09:47:57;8.50;;;5.23;;
9007;SDS011;62813;51.424;6.762;2023-06-24T09:50:24;6.27;;;5.30;;
9007;SDS011;62813;51.424;6.762;2023-06-24T09:52:51;6.30;;;5.17;;
9007;SDS011;62813;51.424;6.762;2023-06-24T09:55:19;5.50;;;4.77;;
9007;SDS011;62813;51.424;6.762;2023-06-24T09:57:46;7.87;;;5.67;;
9007;SDS011;62813;51.424;6.762;2023-06-24T10:00:17;5.23;;;4.73;;
9007;SDS011;62813;51.424;6.762;2023-06-24T10:02:47;5.57;;;4.90;;
9007;SDS011;62813;51.424;6.762;2023-06-24T10:05:15;9.30;;;5.70;;
9007;SDS011;62813;51.424;6.762;2023-06-24T10:07:42;5.10;;;4.60;;
9007;SDS011;62813;51.424;6.762;2023-06-24T10:10:09;7.60;;;6.13;;
9007;SDS011;62813;51.424;6.762;2023-06-24T10:12:36;5.20;;;4.70;;
9007;SDS011;62813;51.424;6.762;2023-06-24T10:15:04;6.27;;;4.70;;
9007;SDS011;62813;51.424;6.762;2023-06-24T10:17:32;8.63;;;4.80;;
9007;SDS011;62813;51.424;6.762;2023-06-24T10:19:59;5.90;;;4.33;;
9007;SDS011;62813;51.424;6.762;2023-06-24T10:22:30;8.60;;;4.70;;
9007;SDS011;62813;51.424;6.762;2023-06-24T10:25:02;5.53;;;4.50;;
9007;SDS011;62813;51.424;6.762;2023-06-24T10:27:32;4.20;;;3.80;;
9007;SDS011;62813;51.424;6.762;2023-06-24T10:30:06;4.80;;;4.00;;
9007;SDS011;62813;51.424;6.762;2023-06-24T10:32:40;7.87;;;4.33;;
9007;SDS011;62813;51.424;6.762;2023-06-24T10:35:27;5.47;;;4.87;;
9007;SDS011;62813;51.424;6.762;2023-06-24T10:37:59;4.77;;;3.80;;
9007;SDS011;62813;51.424;6.762;2023-06-24T10:45:52;5.33;;;4.50;;
9007;SDS011;62813;51.424;6.762;2023-06-24T10:48:20;5.80;;;4.33;;
9007;SDS011;62813;51.424;6.762;2023-06-24T10:50:50;7.47;;;4.93;;
9007;SDS011;62813;51.424;6.762;2023-06-24T10:53:17;5.63;;;4.20;;
9007;SDS011;62813;51.424;6.762;2023-06-24T10:55:46;5.37;;;4.50;;
9007;SDS011;62813;51.424;6.762;2023-06-24T10:58:14;5.10;;;4.60;;
9007;SDS011;62813;51.424;6.762;2023-06-24T11:00:42;5.63;;;4.07;;
9007;SDS011;62813;51.424;6.762;2023-06-24T11:03:14;5.87;;;4.93;;
9007;SDS011;62813;51.424;6.762;2023-06-24T11:05:43;6.37;;;4.70;;
9007;SDS011;62813;51.424;6.762;2023-06-24T11:08:11;5.70;;;4.77;;
9007;SDS011;62813;51.424;6.762;2023-06-24T11:13:14;7.93;;;4.73;;
9007;SDS011;62813;51.424;6.762;2023-06-24T11:15:41;6.47;;;4.63;;
9007;SDS011;62813;51.424;6.762;2023-06-24T11:18:09;4.73;;;4.17;;
9007;SDS011;62813;51.424;6.762;2023-06-24T11:20:36;4.73;;;4.20;;
9007;SDS011;62813;51.424;6.762;2023-06-24T11:23:08;7.17;;;4.53;;
9007;SDS011;62813;51.424;6.762;2023-06-24T11:25:40;4.33;;;3.93;;
9007;SDS011;62813;51.424;6.762;2023-06-24T11:28:17;4.40;;;4.00;;
9007;SDS011;62813;51.424;6.762;2023-06-24T11:30:48;4.73;;;4.30;;
9007;SDS011;62813;51.424;6.762;2023-06-24T11:33:25;5.23;;;4.00;;
9007;SDS011;62813;51.424;6.762;2023-06-24T11:35:53;4.87;;;4.20;;
9007;SDS011;62813;51.424;6.762;2023-06-24T11:38:20;6.00;;;4.03;;
9007;SDS011;62813;51.424;6.762;2023-06-24T11:40:47;5.17;;;4.50;;
9007;SDS011;62813;51.424;6.762;2023-06-24T11:43:15;6.17;;;4.60;;
9007;SDS011;62813;51.424;6.762;2023-06-24T11:45:41;5.50;;;4.43;;
9007;SDS011;62813;51.424;6.762;2023-06-24T11:48:08;5.17;;;4.33;;
9007;SDS011;62813;51.424;6.762;2023-06-24T11:50:35;6.33;;;4.53;;
9007;SDS011;62813;51.424;6.762;2023-06-24T11:53:03;5.70;;;4.70;;
9007;SDS011;62813;51.424;6.762;2023-06-24T11:55:30;4.80;;;4.27;;
9007;SDS011;62813;51.424;6.762;2023-06-24T12:00:38;7.70;;;4.87;;
9007;SDS011;62813;51.424;6.762;2023-06-24T12:03:06;7.63;;;4.83;;
9007;SDS011;62813;51.424;6.762;2023-06-24T12:05:37;5.77;;;4.23;;
9007;SDS011;62813;51.424;6.762;2023-06-24T12:08:12;10.80;;;5.60;;
9007;SDS011;62813;51.424;6.762;2023-06-24T12:10:42;8.60;;;5.73;;
9007;SDS011;62813;51.424;6.762;2023-06-24T12:13:10;6.73;;;4.83;;
9007;SDS011;62813;51.424;6.762;2023-06-24T12:15:37;6.13;;;4.37;;
9007;SDS011;62813;51.424;6.762;2023-06-24T12:18:03;5.30;;;4.03;;
9007;SDS011;62813;51.424;6.762;2023-06-24T12:20:32;4.87;;;4.00;;
9007;SDS011;62813;51.424;6.762;2023-06-24T12:23:03;5.37;;;3.93;;
9007;SDS011;62813;51.424;6.762;2023-06-24T12:25:30;4.80;;;3.60;;
9007;SDS011;62813;51.424;6.762;2023-06-24T12:27:57;5.50;;;3.93;;
9007;SDS011;62813;51.424;6.762;2023-06-24T12:30:26;12.13;;;5.50;;
9007;SDS011;62813;51.424;6.762;2023-06-24T12:32:52;10.80;;;5.40;;
9007;SDS011;62813;51.424;6.762;2023-06-24T12:35:19;6.93;;;4.40;;
9007;SDS011;62813;51.424;6.762;2023-06-24T12:37:46;4.57;;;3.53;;
9007;SDS011;62813;51.424;6.762;2023-06-24T12:40:14;4.77;;;4.00;;
9007;SDS011;62813;51.424;6.762;2023-06-24T12:42:40;4.20;;;3.77;;
9007;SDS011;62813;51.424;6.762;2023-06-24T12:45:07;5.50;;;3.80;;
9007;SDS011;62813;51.424;6.762;2023-06-24T12:47:34;5.10;;;4.20;;
9007;SDS011;62813;51.424;6.762;2023-06-24T12:50:01;5.20;;;3.87;;
9007;SDS011;62813;51.424;6.762;2023-06-24T12:52:35;4.40;;;4.00;;
9007;SDS011;62813;51.424;6.762;2023-06-24T12:55:01;5.13;;;3.40;;
9007;SDS011;62813;51.424;6.762;2023-06-24T12:57:30;3.57;;;3.07;;
9007;SDS011;62813;51.424;6.762;2023-06-24T12:59:56;3.80;;;3.43;;
9007;SDS011;62813;51.424;6.762;2023-06-24T13:02:23;3.10;;;2.80;;
9007;SDS011;62813;51.424;6.762;2023-06-24T13:04:50;6.27;;;3.40;;
9007;SDS011;62813;51.424;6.762;2023-06-24T13:07:17;3.10;;;2.80;;
9007;SDS011;62813;51.424;6.762;2023-06-24T13:09:43;5.03;;;2.90;;
9007;SDS011;62813;51.424;6.762;2023-06-24T13:12:10;5.03;;;3.70;;
9007;SDS011;62813;51.424;6.762;2023-06-24T13:14:37;3.57;;;3.20;;
9007;SDS011;62813;51.424;6.762;2023-06-24T13:17:03;3.40;;;2.73;;
9007;SDS011;62813;51.424;6.762;2023-06-24T13:19:30;4.23;;;3.40;;
9007;SDS011;62813;51.424;6.762;2023-06-24T13:21:58;5.07;;;4.40;;
9007;SDS011;62813;51.424;6.762;2023-06-24T13:24:25;7.40;;;5.30;;
9007;SDS011;62813;51.424;6.762;2023-06-24T13:26:52;5.07;;;4.37;;
9007;SDS011;62813;51.424;6.762;2023-06-24T13:29:19;4.03;;;3.73;;
9007;SDS011;62813;51.424;6.762;2023-06-24T13:31:46;4.00;;;3.60;;
9007;SDS011;62813;51.424;6.762;2023-06-24T13:34:13;3.13;;;2.90;;
9007;SDS011;62813;51.424;6.762;2023-06-24T13:36:40;3.43;;;2.90;;
9007;SDS011;62813;51.424;6.762;2023-06-24T13:39:08;3.57;;;3.27;;
9007;SDS011;62813;51.424;6.762;2023-06-24T13:41:38;4.93;;;3.60;;
9007;SDS011;62813;51.424;6.762;2023-06-24T13:44:05;4.10;;;3.23;;
9007;SDS011;62813;51.424;6.762;2023-06-24T13:46:35;4.67;;;2.90;;
9007;SDS011;62813;51.424;6.762;2023-06-24T13:49:02;3.20;;;2.87;;
9007;SDS011;62813;51.424;6.762;2023-06-24T13:51:31;5.23;;;3.10;;
9007;SDS011;62813;51.424;6.762;2023-06-24T13:53:58;3.03;;;2.73;;
9007;SDS011;62813;51.424;6.762;2023-06-24T13:56:25;3.20;;;2.87;;
9007;SDS011;62813;51.424;6.762;2023-06-24T13:58:53;3.93;;;3.00;;
9007;SDS011;62813;51.424;6.762;2023-06-24T14:01:20;3.73;;;3.10;;
9007;SDS011;62813;51.424;6.762;2023-06-24T14:03:48;3.13;;;2.80;;
9007;SDS011;62813;51.424;6.762;2023-06-24T14:06:16;3.30;;;3.00;;
9007;SDS011;62813;51.424;6.762;2023-06-24T14:08:45;2.73;;;2.53;;
9007;SDS011;62813;51.424;6.762;2023-06-24T14:11:12;3.53;;;2.83;;
9007;SDS011;62813;51.424;6.762;2023-06-24T14:13:39;3.30;;;3.00;;
9007;SDS011;62813;51.424;6.762;2023-06-24T14:16:06;3.63;;;3.00;;
9007;SDS011;62813;51.424;6.762;2023-06-24T14:18:33;3.63;;;3.33;;
9007;SDS011;62813;51.424;6.762;2023-06-24T14:21:01;3.13;;;2.83;;
9007;SDS011;62813;51.424;6.762;2023-06-24T14:23:30;3.43;;;3.13;;
9007;SDS011;62813;51.424;6.762;2023-06-24T14:25:57;5.17;;;2.80;;
9007;SDS011;62813;51.424;6.762;2023-06-24T14:28:25;3.20;;;2.90;;
9007;SDS011;62813;51.424;6.762;2023-06-24T14:30:52;3.37;;;3.07;;
9007;SDS011;62813;51.424;6.762;2023-06-24T14:33:19;4.20;;;2.77;;
9007;SDS011;62813;51.424;6.762;2023-06-24T14:35:45;3.07;;;2.77;;
9007;SDS011;62813;51.424;6.762;2023-06-24T14:38:12;3.20;;;2.90;;
9007;SDS011;62813;51.424;6.762;2023-06-24T14:40:39;3.37;;;3.07;;
9007;SDS011;62813;51.424;6.762;2023-06-24T14:43:06;3.97;;;3.47;;
9007;SDS011;62813;51.424;6.762;2023-06-24T14:45:32;5.50;;;3.47;;
9007;SDS011;62813;51.424;6.762;2023-06-24T14:47:59;3.70;;;3.10;;
9007;SDS011;62813;51.424;6.762;2023-06-24T14:50:26;3.40;;;3.07;;
9007;SDS011;62813;51.424;6.762;2023-06-24T14:52:52;3.57;;;3.00;;
9007;SDS011;62813;51.424;6.762;2023-06-24T14:55:19;3.83;;;3.03;;
9007;SDS011;62813;51.424;6.762;2023-06-24T14:57:46;4.80;;;3.67;;
9007;SDS011;62813;51.424;6.762;2023-06-24T15:00:12;4.10;;;2.93;;
9007;SDS011;62813;51.424;6.762;2023-06-24T15:02:39;3.00;;;2.70;;
9007;SDS011;62813;51.424;6.762;2023-06-24T15:05:06;2.77;;;2.30;;
9007;SDS011;62813;51.424;6.762;2023-06-24T15:07:34;3.47;;;3.17;;
9007;SDS011;62813;51.424;6.762;2023-06-24T15:10:01;3.40;;;3.10;;
9007;SDS011;62813;51.424;6.762;2023-06-24T15:12:27;3.67;;;3.03;;
9007;SDS011;62813;51.424;6.762;2023-06-24T15:14:54;4.60;;;3.30;;
9007;SDS011;62813;51.424;6.762;2023-06-24T15:17:21;3.40;;;3.10;;
9007;SDS011;62813;51.424;6.762;2023-06-24T15:19:50;4.10;;;3.30;;
9007;SDS011;62813;51.424;6.762;2023-06-24T15:22:17;6.03;;;4.20;;
9007;SDS011;62813;51.424;6.762;2023-06-24T15:24:44;7.10;;;3.50;;